createdAt,value
2018-08-19T00:01:24.216Z,1.40
2018-08-19T00:03:52.126Z,3.23
2018-08-19T00:06:20.114Z,1.60
2018-08-19T00:08:47.983Z,1.40
2018-08-19T00:11:15.935Z,1.53
2018-08-19T00:13:44.347Z,1.40
2018-08-19T00:16:12.316Z,1.53
2018-08-19T00:18:40.216Z,1.43
2018-08-19T00:21:10.820Z,1.40
2018-08-19T00:23:44.225Z,2.33
2018-08-19T00:26:13.548Z,1.83
2018-08-19T00:28:42.051Z,1.43
2018-08-19T00:31:10.307Z,1.67
2018-08-19T00:33:38.139Z,1.63
2018-08-19T00:36:15.491Z,1.60
2018-08-19T00:38:44.088Z,1.50
2018-08-19T00:41:11.958Z,1.30
2018-08-19T00:43:39.816Z,1.60
2018-08-19T00:46:13.343Z,1.30
2018-08-19T00:48:41.761Z,1.50
2018-08-19T00:51:10.230Z,1.50
2018-08-19T00:53:38.121Z,1.30
2018-08-19T00:56:05.999Z,1.57
2018-08-19T00:58:33.871Z,1.30
2018-08-19T01:01:02.405Z,1.30
2018-08-19T01:03:31.162Z,1.60
2018-08-19T01:05:59.549Z,1.57
2018-08-19T01:08:27.460Z,1.63
2018-08-19T01:10:55.959Z,1.47
2018-08-19T01:13:24.611Z,1.00
2018-08-19T01:15:53.094Z,1.20
2018-08-19T01:18:21.956Z,1.27
2018-08-19T01:20:54.987Z,1.10
2018-08-19T01:23:23.466Z,1.40
2018-08-19T01:25:52.415Z,0.90
2018-08-19T01:28:20.963Z,1.27
2018-08-19T01:30:49.402Z,1.30
2018-08-19T01:33:18.004Z,1.27
2018-08-19T01:35:46.582Z,0.93
2018-08-19T01:38:15.067Z,1.40
2018-08-19T01:40:43.730Z,1.30
2018-08-19T01:43:11.567Z,1.00
2018-08-19T01:45:39.996Z,1.43
2018-08-19T01:48:07.989Z,1.30
2018-08-19T01:50:36.956Z,1.27
2018-08-19T01:53:05.298Z,1.40
2018-08-19T01:55:33.928Z,1.10
2018-08-19T01:58:02.411Z,0.83
2018-08-19T02:00:31.062Z,1.23
2018-08-19T02:03:01.428Z,1.37
2018-08-19T02:05:29.405Z,1.13
2018-08-19T02:07:58.899Z,1.30
2018-08-19T02:10:27.539Z,1.23
2018-08-19T02:12:57.300Z,1.40
2018-08-19T02:15:27.396Z,1.00
2018-08-19T02:18:00.548Z,1.80
2018-08-19T02:20:33.162Z,1.17
2018-08-19T02:23:02.345Z,1.00
2018-08-19T02:25:37.732Z,0.97
2018-08-19T02:28:06.647Z,1.00
2018-08-19T02:30:34.832Z,1.27
2018-08-19T02:33:03.352Z,1.00
2018-08-19T02:35:31.238Z,0.80
2018-08-19T02:37:59.166Z,1.17
2018-08-19T02:40:30.327Z,1.23
2018-08-19T02:42:58.245Z,0.90
2018-08-19T02:45:26.213Z,0.80
2018-08-19T02:47:54.078Z,1.03
2018-08-19T02:50:21.953Z,1.50
2018-08-19T02:52:49.814Z,1.10
2018-08-19T02:55:17.731Z,0.97
2018-08-19T02:57:45.694Z,0.90
2018-08-19T03:00:13.646Z,0.90
2018-08-19T03:02:42.512Z,0.60
2018-08-19T03:05:11.146Z,1.00
2018-08-19T03:07:39.045Z,0.70
2018-08-19T03:10:09.052Z,0.90
2018-08-19T03:12:37.683Z,1.37
2018-08-19T03:15:06.872Z,0.80
2018-08-19T03:17:35.466Z,0.70
2018-08-19T03:20:04.133Z,0.90
2018-08-19T03:22:32.527Z,1.20
2018-08-19T03:25:01.662Z,0.80
2018-08-19T03:27:29.993Z,1.10
2018-08-19T03:29:59.667Z,1.03
2018-08-19T03:32:28.263Z,0.90
2018-08-19T03:35:02.778Z,0.80
2018-08-19T03:37:31.180Z,1.37
2018-08-19T03:39:59.660Z,1.00
2018-08-19T03:42:27.911Z,1.07
2018-08-19T03:44:57.456Z,1.07
2018-08-19T03:47:25.276Z,1.20
2018-08-19T03:49:53.140Z,1.13
2018-08-19T03:52:21.006Z,0.80
2018-08-19T03:54:48.847Z,0.90
2018-08-19T03:57:20.531Z,0.93
2018-08-19T03:59:49.290Z,1.00
2018-08-19T04:02:17.587Z,0.70
2018-08-19T04:04:46.068Z,0.80
2018-08-19T04:07:14.672Z,1.07
2018-08-19T04:09:43.121Z,1.00
2018-08-19T04:12:15.479Z,1.03
2018-08-19T04:14:44.151Z,1.10
2018-08-19T04:17:13.563Z,1.27
2018-08-19T04:19:42.420Z,0.80
2018-08-19T04:22:11.044Z,1.00
2018-08-19T04:24:39.675Z,0.93
2018-08-19T04:27:10.135Z,0.90
2018-08-19T04:29:38.902Z,0.87
2018-08-19T04:32:07.666Z,0.70
2018-08-19T04:34:36.193Z,1.03
2018-08-19T04:37:04.654Z,1.00
2018-08-19T04:39:33.281Z,0.90
2018-08-19T04:42:01.901Z,0.93
2018-08-19T04:44:30.519Z,0.73
2018-08-19T04:46:59.892Z,1.10
2018-08-19T04:49:28.413Z,0.87
2018-08-19T04:51:57.188Z,1.10
2018-08-19T04:54:25.661Z,1.20
2018-08-19T04:56:54.299Z,0.97
2018-08-19T04:59:22.934Z,1.00
2018-08-19T05:01:51.566Z,1.20
2018-08-19T05:04:20.810Z,0.83
2018-08-19T05:06:49.419Z,0.90
2018-08-19T05:09:18.059Z,0.90
2018-08-19T05:11:46.519Z,0.70
2018-08-19T05:14:14.927Z,1.07
2018-08-19T05:16:43.409Z,0.90
2018-08-19T05:19:12.824Z,1.07
2018-08-19T05:21:41.467Z,1.63
2018-08-19T05:24:10.075Z,1.00
2018-08-19T05:26:38.736Z,1.00
2018-08-19T05:29:07.451Z,1.00
2018-08-19T05:31:40.565Z,1.20
2018-08-19T05:34:16.067Z,1.10
2018-08-19T05:36:44.916Z,1.00
2018-08-19T05:39:12.746Z,0.80
2018-08-19T05:41:46.691Z,0.70
2018-08-19T05:44:15.109Z,1.10
2018-08-19T05:46:43.784Z,0.90
2018-08-19T05:49:12.168Z,1.20
2018-08-19T05:51:40.580Z,1.03
2018-08-19T05:54:09.124Z,0.83
2018-08-19T05:56:37.674Z,1.10
2018-08-19T05:59:06.131Z,0.97
2018-08-19T06:01:34.797Z,1.00
2018-08-19T06:04:03.410Z,0.90
2018-08-19T06:06:31.842Z,1.20
2018-08-19T06:09:00.520Z,1.23
2018-08-19T06:11:29.141Z,1.10
2018-08-19T06:13:57.747Z,1.03
2018-08-19T06:16:26.396Z,1.10
2018-08-19T06:18:55.065Z,0.90
2018-08-19T06:21:23.671Z,1.00
2018-08-19T06:23:53.496Z,1.20
2018-08-19T06:26:26.545Z,1.00
2018-08-19T06:28:54.447Z,0.93
2018-08-19T06:31:22.703Z,0.80
2018-08-19T06:33:51.367Z,0.70
2018-08-19T06:36:20.020Z,1.13
2018-08-19T06:38:49.376Z,0.90
2018-08-19T06:41:17.899Z,1.00
2018-08-19T06:43:46.304Z,0.93
2018-08-19T06:46:14.754Z,1.40
2018-08-19T06:48:43.394Z,1.43
2018-08-19T06:51:11.331Z,0.90
2018-08-19T06:53:39.830Z,1.40
2018-08-19T06:56:08.323Z,0.87
2018-08-19T06:58:36.991Z,0.97
2018-08-19T07:01:05.579Z,1.10
2018-08-19T07:03:34.607Z,0.80
2018-08-19T07:06:10.630Z,1.20
2018-08-19T07:08:38.994Z,1.30
2018-08-19T07:11:07.396Z,1.13
2018-08-19T07:13:35.406Z,1.00
2018-08-19T07:16:03.902Z,1.60
2018-08-19T07:18:32.714Z,0.80
2018-08-19T07:21:01.380Z,1.37
2018-08-19T07:23:29.221Z,1.10
2018-08-19T07:25:57.077Z,1.17
2018-08-19T07:28:24.944Z,1.20
2018-08-19T07:30:52.836Z,1.10
2018-08-19T07:33:20.803Z,0.90
2018-08-19T07:35:48.650Z,1.00
2018-08-19T07:38:17.579Z,0.90
2018-08-19T07:40:46.131Z,0.90
2018-08-19T07:43:14.007Z,1.13
2018-08-19T07:45:41.986Z,0.93
2018-08-19T07:48:09.979Z,1.43
2018-08-19T07:50:37.830Z,1.27
2018-08-19T07:53:05.759Z,0.87
2018-08-19T07:55:33.629Z,0.77
2018-08-19T07:58:01.517Z,0.83
2018-08-19T08:00:34.779Z,0.87
2018-08-19T08:03:04.094Z,1.43
2018-08-19T08:05:37.789Z,0.90
2018-08-19T08:08:07.195Z,1.10
2018-08-19T08:10:35.822Z,1.17
2018-08-19T08:13:08.829Z,1.50
2018-08-19T08:15:53.207Z,1.13
2018-08-19T08:18:21.802Z,0.90
2018-08-19T08:20:50.441Z,1.77
2018-08-19T08:23:19.279Z,1.17
2018-08-19T08:25:48.031Z,1.60
2018-08-19T08:28:16.550Z,1.10
2018-08-19T08:30:44.989Z,1.17
2018-08-19T08:33:13.394Z,0.87
2018-08-19T08:35:46.746Z,0.90
2018-08-19T08:38:15.038Z,0.90
2018-08-19T08:40:43.757Z,1.17
2018-08-19T08:43:11.576Z,1.07
2018-08-19T08:45:40.163Z,1.17
2018-08-19T08:48:08.935Z,1.10
2018-08-19T08:50:37.536Z,1.20
2018-08-19T08:53:06.054Z,1.00
2018-08-19T08:55:34.695Z,1.40
2018-08-19T08:58:03.297Z,1.10
2018-08-19T09:00:31.531Z,1.23
2018-08-19T09:03:00.022Z,1.20
2018-08-19T09:05:28.665Z,1.53
2018-08-19T09:07:58.386Z,1.33
2018-08-19T09:10:26.300Z,1.20
2018-08-19T09:12:55.263Z,1.00
2018-08-19T09:15:23.194Z,1.20
2018-08-19T09:17:51.841Z,0.90
2018-08-19T09:20:19.767Z,1.13
2018-08-19T09:22:48.391Z,1.13
2018-08-19T09:25:16.340Z,1.03
2018-08-19T09:27:44.734Z,1.00
2018-08-19T09:30:44.976Z,0.80
2018-08-19T09:33:13.072Z,1.10
2018-08-19T09:35:42.233Z,1.10
2018-08-19T09:38:12.655Z,2.00
2018-08-19T09:40:40.658Z,1.07
2018-08-19T09:43:09.235Z,1.30
2018-08-19T09:45:37.494Z,1.33
2018-08-19T09:48:06.131Z,1.20
2018-08-19T09:50:35.009Z,1.23
2018-08-19T09:53:03.077Z,1.23
2018-08-19T09:55:36.191Z,1.30
2018-08-19T09:58:04.098Z,1.40
2018-08-19T10:00:37.068Z,1.30
2018-08-19T10:03:04.979Z,1.27
2018-08-19T10:05:33.777Z,1.27
2018-08-19T10:08:01.767Z,1.03
2018-08-19T10:10:29.866Z,1.17
2018-08-19T10:12:57.758Z,1.43
2018-08-19T10:15:25.604Z,1.67
2018-08-19T10:17:53.427Z,2.23
2018-08-19T10:20:21.327Z,1.23
2018-08-19T10:22:49.411Z,1.07
2018-08-19T10:25:18.633Z,1.10
2018-08-19T10:27:48.054Z,1.03
2018-08-19T10:30:16.966Z,1.20
2018-08-19T10:32:45.565Z,1.23
2018-08-19T10:35:18.414Z,1.07
2018-08-19T10:37:46.711Z,1.13
2018-08-19T10:40:14.700Z,1.00
2018-08-19T10:42:42.620Z,1.10
2018-08-19T10:45:18.568Z,1.30
2018-08-19T10:47:46.457Z,1.00
2018-08-19T10:50:14.393Z,1.13
2018-08-19T10:52:43.265Z,1.30
2018-08-19T10:55:12.689Z,1.70
2018-08-19T10:57:40.642Z,1.20
2018-08-19T11:00:12.482Z,1.00
2018-08-19T11:02:40.331Z,1.10
2018-08-19T11:05:08.278Z,1.37
2018-08-19T11:07:36.198Z,1.67
2018-08-19T11:10:21.859Z,1.50
2018-08-19T11:12:51.754Z,1.20
2018-08-19T11:15:28.975Z,1.20
2018-08-19T11:17:57.664Z,2.33
2018-08-19T11:20:30.770Z,1.57
2018-08-19T11:23:00.919Z,1.63
2018-08-19T11:25:29.275Z,1.43
2018-08-19T11:27:57.897Z,1.17
2018-08-19T11:30:26.111Z,1.10
2018-08-19T11:32:54.072Z,1.83
2018-08-19T11:35:22.844Z,1.33
2018-08-19T11:37:50.675Z,1.53
2018-08-19T11:40:18.514Z,1.60
2018-08-19T11:42:46.362Z,1.93
2018-08-19T11:45:14.248Z,1.27
2018-08-19T11:47:46.295Z,1.40
2018-08-19T11:50:14.233Z,1.50
2018-08-19T11:52:46.405Z,1.40
2018-08-19T11:55:14.309Z,1.20
2018-08-19T11:57:42.307Z,1.20
2018-08-19T12:00:10.208Z,1.20
2018-08-19T12:02:38.093Z,1.23
2018-08-19T12:05:05.943Z,1.70
2018-08-19T12:07:33.784Z,1.13
2018-08-19T12:10:01.968Z,1.67
2018-08-19T12:12:40.488Z,1.23
2018-08-19T12:15:08.347Z,1.33
2018-08-19T12:17:36.221Z,1.70
2018-08-19T12:20:04.152Z,1.77
2018-08-19T12:22:32.012Z,1.50
2018-08-19T12:24:59.835Z,1.40
2018-08-19T12:27:27.694Z,1.73
2018-08-19T12:29:58.579Z,1.80
2018-08-19T12:32:27.669Z,1.97
2018-08-19T12:34:56.963Z,1.83
2018-08-19T12:37:26.102Z,1.63
2018-08-19T12:39:54.627Z,1.73
2018-08-19T12:42:22.571Z,1.60
2018-08-19T12:44:53.403Z,1.90
2018-08-19T12:47:23.370Z,1.63
2018-08-19T12:49:56.528Z,1.70
2018-08-19T12:52:26.651Z,1.53
2018-08-19T12:54:59.570Z,1.90
2018-08-19T12:57:27.577Z,1.53
2018-08-19T13:00:02.335Z,1.50
2018-08-19T13:02:30.830Z,1.50
2018-08-19T13:04:58.675Z,1.60
2018-08-19T13:07:26.518Z,1.67
2018-08-19T13:09:54.387Z,1.60
2018-08-19T13:12:22.241Z,1.50
2018-08-19T13:14:50.082Z,1.33
2018-08-19T13:17:17.976Z,1.80
2018-08-19T13:19:52.644Z,1.30
2018-08-19T13:22:20.507Z,1.67
2018-08-19T13:24:48.355Z,1.57
2018-08-19T13:27:16.246Z,1.60
2018-08-19T13:29:44.096Z,1.40
2018-08-19T13:32:12.114Z,1.97
2018-08-19T13:34:39.948Z,1.33
2018-08-19T13:37:07.855Z,1.60
2018-08-19T13:39:35.728Z,1.40
2018-08-19T13:42:03.696Z,1.27
2018-08-19T13:44:31.601Z,1.27
2018-08-19T13:46:59.591Z,1.40
2018-08-19T13:49:28.820Z,1.60
2018-08-19T13:51:59.719Z,1.53
2018-08-19T13:54:27.590Z,1.33
2018-08-19T13:56:55.463Z,1.70
2018-08-19T13:59:23.331Z,1.50
2018-08-19T14:01:51.271Z,1.70
2018-08-19T14:04:19.399Z,1.80
2018-08-19T14:06:49.449Z,1.43
2018-08-19T14:09:21.240Z,1.80
2018-08-19T14:11:49.254Z,1.77
2018-08-19T14:14:17.306Z,1.70
2018-08-19T14:16:46.255Z,2.20
2018-08-19T14:19:14.273Z,1.50
2018-08-19T14:21:44.975Z,1.30
2018-08-19T14:24:13.010Z,1.93
2018-08-19T14:26:41.999Z,1.33
2018-08-19T14:29:10.029Z,1.47
2018-08-19T14:31:39.500Z,1.70
2018-08-19T14:34:07.519Z,1.83
2018-08-19T14:36:35.490Z,1.47
2018-08-19T14:39:04.267Z,1.40
2018-08-19T14:41:32.163Z,1.70
2018-08-19T14:44:00.796Z,1.40
2018-08-19T14:46:29.806Z,1.67
2018-08-19T14:49:04.939Z,1.70
2018-08-19T14:51:38.103Z,1.37
2018-08-19T14:54:20.544Z,1.77
2018-08-19T14:56:48.391Z,1.70
2018-08-19T14:59:16.719Z,1.60
2018-08-19T15:01:45.281Z,1.60
2018-08-19T15:04:14.023Z,1.90
2018-08-19T15:06:43.056Z,1.67
2018-08-19T15:09:18.271Z,2.03
2018-08-19T15:11:46.251Z,1.30
2018-08-19T15:14:18.955Z,1.60
2018-08-19T15:16:49.016Z,1.50
2018-08-19T15:19:16.898Z,1.53
2018-08-19T15:21:49.659Z,1.50
2018-08-19T15:24:17.562Z,1.50
2018-08-19T15:26:45.588Z,1.37
2018-08-19T15:29:19.582Z,1.43
2018-08-19T15:31:48.168Z,1.50
2018-08-19T15:34:16.195Z,1.60
2018-08-19T15:36:44.103Z,1.30
2018-08-19T15:39:13.170Z,1.47
2018-08-19T15:41:41.083Z,2.00
2018-08-19T15:44:08.899Z,1.40
2018-08-19T15:46:36.811Z,1.67
2018-08-19T15:49:08.367Z,1.40
2018-08-19T15:51:36.432Z,1.43
2018-08-19T15:54:04.567Z,1.50
2018-08-19T15:56:32.505Z,1.47
2018-08-19T15:59:01.503Z,1.70
2018-08-19T16:01:33.313Z,1.20
2018-08-19T16:04:07.307Z,1.23
2018-08-19T16:06:35.451Z,1.83
2018-08-19T16:09:04.163Z,1.50
2018-08-19T16:11:33.198Z,1.53
2018-08-19T16:14:01.631Z,1.33
2018-08-19T16:16:30.445Z,1.63
2018-08-19T16:18:59.416Z,1.60
2018-08-19T16:21:29.432Z,1.43
2018-08-19T16:24:27.205Z,1.43
2018-08-19T16:26:57.666Z,1.20
2018-08-19T16:29:27.850Z,1.30
2018-08-19T16:31:57.932Z,1.30
2018-08-19T16:34:28.971Z,1.40
2018-08-19T16:37:03.878Z,1.30
2018-08-19T16:39:33.519Z,1.90
2018-08-19T16:42:02.124Z,1.70
2018-08-19T16:44:31.099Z,2.40
2018-08-19T16:46:58.934Z,1.97
2018-08-19T16:49:26.772Z,1.70
2018-08-19T16:51:54.662Z,3.13
2018-08-19T16:54:22.505Z,2.00
2018-08-19T16:56:50.373Z,2.90
2018-08-19T16:59:18.236Z,2.47
2018-08-19T17:01:46.104Z,2.30
2018-08-19T17:04:13.984Z,2.10
2018-08-19T17:06:41.825Z,1.50
2018-08-19T17:09:10.180Z,1.60
2018-08-19T17:11:38.215Z,1.60
2018-08-19T17:14:06.163Z,1.87
2018-08-19T17:16:34.096Z,1.40
2018-08-19T17:19:02.045Z,1.83
2018-08-19T17:21:29.919Z,2.60
2018-08-19T17:23:57.874Z,1.80
2018-08-19T17:26:25.874Z,2.07
2018-08-19T17:28:53.998Z,2.10
2018-08-19T17:31:22.103Z,1.70
2018-08-19T17:33:50.320Z,1.50
2018-08-19T17:36:37.233Z,1.90
2018-08-19T17:39:07.128Z,1.47
2018-08-19T17:41:34.979Z,1.77
2018-08-19T17:44:03.250Z,1.63
2018-08-19T17:46:31.335Z,2.57
2018-08-19T17:48:59.599Z,1.70
2018-08-19T17:51:29.557Z,1.50
2018-08-19T17:53:57.470Z,1.60
2018-08-19T17:56:25.537Z,1.53
2018-08-19T17:58:53.498Z,1.80
2018-08-19T18:01:21.931Z,1.50
2018-08-19T18:03:49.955Z,1.80
2018-08-19T18:06:17.824Z,2.13
2018-08-19T18:08:53.248Z,1.93
2018-08-19T18:11:21.427Z,1.83
2018-08-19T18:13:49.745Z,1.93
2018-08-19T18:16:17.688Z,1.77
2018-08-19T18:18:46.642Z,1.47
2018-08-19T18:21:16.147Z,1.83
2018-08-19T18:23:44.622Z,1.70
2018-08-19T18:26:12.532Z,2.07
2018-08-19T18:28:42.253Z,1.70
2018-08-19T18:31:10.247Z,2.33
2018-08-19T18:33:41.592Z,1.80
2018-08-19T18:36:09.684Z,2.20
2018-08-19T18:38:37.616Z,2.30
2018-08-19T18:41:05.587Z,2.13
2018-08-19T18:43:33.442Z,1.50
2018-08-19T18:46:01.376Z,2.60
2018-08-19T18:48:29.247Z,1.90
2018-08-19T18:50:57.268Z,1.70
2018-08-19T18:53:26.897Z,1.83
2018-08-19T18:55:54.916Z,2.23
2018-08-19T18:58:22.822Z,2.20
2018-08-19T19:00:59.023Z,1.87
2018-08-19T19:03:26.983Z,1.73
2018-08-19T19:05:54.996Z,2.83
2018-08-19T19:08:22.921Z,3.47
2018-08-19T19:10:56.428Z,2.03
2018-08-19T19:13:25.350Z,1.70
2018-08-19T19:15:54.000Z,1.83
2018-08-19T19:18:22.084Z,1.60
2018-08-19T19:20:57.650Z,1.87
2018-08-19T19:23:39.449Z,2.40
2018-08-19T19:26:08.152Z,1.97
2018-08-19T19:28:36.391Z,2.17
2018-08-19T19:31:09.216Z,1.70
2018-08-19T19:33:37.476Z,2.00
2018-08-19T19:36:20.532Z,2.27
2018-08-19T19:38:53.691Z,2.07
2018-08-19T19:41:22.282Z,2.00
2018-08-19T19:43:50.297Z,2.23
2018-08-19T19:46:18.229Z,2.17
2018-08-19T19:48:46.088Z,2.00
2018-08-19T19:51:14.548Z,1.83
2018-08-19T19:53:42.457Z,2.40
2018-08-19T19:56:12.759Z,2.27
2018-08-19T19:58:40.926Z,2.10
2018-08-19T20:01:08.811Z,2.10
2018-08-19T20:03:52.812Z,2.30
2018-08-19T20:06:20.663Z,1.90
2018-08-19T20:08:48.603Z,2.20
2018-08-19T20:11:21.764Z,2.37
2018-08-19T20:13:50.047Z,1.90
2018-08-19T20:16:18.307Z,1.93
2018-08-19T20:18:46.199Z,1.60
2018-08-19T20:21:23.084Z,1.87
2018-08-19T20:23:51.432Z,1.93
2018-08-19T20:26:19.411Z,2.17
2018-08-19T20:28:49.373Z,2.63
2018-08-19T20:31:17.326Z,2.70
2018-08-19T20:33:45.320Z,3.03
2018-08-19T20:36:13.250Z,2.77
2018-08-19T20:38:41.159Z,2.40
2018-08-19T20:41:09.080Z,2.80
2018-08-19T20:43:37.027Z,2.63
2018-08-19T20:46:06.999Z,2.47
2018-08-19T20:48:35.264Z,2.40
2018-08-19T20:51:03.146Z,1.93
2018-08-19T20:53:31.089Z,2.50
2018-08-19T20:55:59.017Z,2.20
2018-08-19T20:58:26.944Z,1.90
2018-08-19T21:00:54.851Z,2.10
2018-08-19T21:03:22.735Z,2.03
2018-08-19T21:05:50.572Z,2.07
2018-08-19T21:08:19.365Z,1.93
2018-08-19T21:10:48.136Z,2.40
2018-08-19T21:13:18.223Z,2.13
2018-08-19T21:15:47.442Z,2.00
2018-08-19T21:18:15.300Z,2.40
2018-08-19T21:20:43.754Z,2.23
2018-08-19T21:23:11.669Z,2.10
2018-08-19T21:25:44.545Z,2.40
2018-08-19T21:28:12.720Z,2.73
2018-08-19T21:30:40.596Z,2.40
2018-08-19T21:33:08.900Z,2.20
2018-08-19T21:35:41.843Z,2.20
2018-08-19T21:38:09.816Z,1.93
2018-08-19T21:40:38.378Z,2.50
2018-08-19T21:43:06.650Z,1.93
2018-08-19T21:45:35.015Z,2.10
2018-08-19T21:48:02.862Z,2.20
2018-08-19T21:50:31.051Z,2.30
2018-08-19T21:53:06.370Z,2.10
2018-08-19T21:55:37.492Z,2.10
2018-08-19T21:58:05.862Z,2.10
2018-08-19T22:00:35.089Z,2.20
2018-08-19T22:03:08.484Z,2.00
2018-08-19T22:05:36.324Z,2.10
2018-08-19T22:08:04.967Z,2.40
2018-08-19T22:10:33.738Z,2.53
2018-08-19T22:13:01.628Z,1.93
2018-08-19T22:15:34.699Z,1.97
2018-08-19T22:18:02.654Z,2.20
2018-08-19T22:20:30.641Z,2.20
2018-08-19T22:22:58.475Z,2.10
2018-08-19T22:25:26.323Z,2.10
2018-08-19T22:27:54.152Z,1.90
2018-08-19T22:30:22.275Z,2.47
2018-08-19T22:32:50.114Z,2.03
2018-08-19T22:35:18.302Z,1.97
2018-08-19T22:37:46.228Z,2.80
2018-08-19T22:40:14.371Z,2.57
2018-08-19T22:42:42.340Z,2.20
2018-08-19T22:45:10.183Z,2.13
2018-08-19T22:47:38.052Z,2.10
2018-08-19T22:50:05.932Z,2.20
2018-08-19T22:52:33.812Z,2.03
2018-08-19T22:55:01.689Z,2.00
2018-08-19T22:57:29.559Z,1.90
2018-08-19T22:59:57.411Z,1.93
2018-08-19T23:02:25.383Z,2.13
2018-08-19T23:04:53.262Z,2.60
2018-08-19T23:07:21.124Z,2.10
2018-08-19T23:09:48.951Z,2.47
2018-08-19T23:12:16.794Z,2.00
2018-08-19T23:14:50.131Z,2.53
2018-08-19T23:17:18.022Z,2.80
2018-08-19T23:19:47.493Z,2.53
2018-08-19T23:22:15.341Z,2.17
2018-08-19T23:24:43.167Z,2.03
2018-08-19T23:27:11.029Z,2.23
2018-08-19T23:29:38.887Z,2.17
2018-08-19T23:32:06.735Z,2.43
2018-08-19T23:34:34.614Z,2.30
2018-08-19T23:37:02.484Z,2.30
2018-08-19T23:39:30.380Z,2.30
2018-08-19T23:41:58.198Z,2.40
2018-08-19T23:44:26.103Z,2.77
2018-08-19T23:46:53.987Z,2.23
2018-08-19T23:49:21.852Z,2.70
2018-08-19T23:51:49.698Z,2.30
2018-08-19T23:54:17.529Z,2.60
2018-08-19T23:56:45.379Z,3.03
2018-08-19T23:59:15.171Z,2.80
